Wichita, KS (67209)

8:18 PM CDT on July 24, 2016 (GMT -0500)
Near the airport | | Change Station

Elev 1348 ft 37.65 °N, 97.44 °W | Updated 2 seconds ago

Mostly Cloudy
Mostly Cloudy
92.6 °F
Feels Like 98 °F
N
5.0
Wind Variable Wind from SE
Gusts 7.0 mph

Today
High -- | Low -- °F
--% Chance of Precip.
Yesterday
High -- | Low -- °F
Precip. -- in
Pressure 29.84 in
Visibility 10.0 miles
Clouds Scattered Clouds 10000 ft
Mostly Cloudy 15000 ft
Mostly Cloudy 22000 ft
Heat Index 98 °F
Dew Point 69 °F
Humidity 46%
Rainfall 0.00 in
Snow Depth Not available.
6:27 AM 8:44 PM
Waning Gibbous, 71% visible
METAR KICT 250053Z 12011KT 10SM SCT100 BKN150 BKN220 36/20 A2989 RMK AO2 SLP103 ACC DSNT SW-NW-N T03560200
Pressure 29.84 in
Visibility 10.0 miles
Clouds Scattered Clouds 10000 ft
Mostly Cloudy 15000 ft
Mostly Cloudy 22000 ft
Heat Index 98 °F
Dew Point 69 °F
Humidity 46%
Rainfall 0.00 in
Snow Depth Not available.
6:27 AM 8:44 PM
Waning Gibbous, 71% visible
METAR KICT 250053Z 12011KT 10SM SCT100 BKN150 BKN220 36/20 A2989 RMK AO2 SLP103 ACC DSNT SW-NW-N T03560200

10-Day Weather Forecast

Almanac

Astronomy

Jul. 24, 2016 Rise Set
Actual Time
Civil Twilight
Nautical Twilight
Astronomical Twilight
Moon
Length of Visible Light
Length of Day
Tomorrow will be .
, % of the Moon is Illuminated

Today's Extremes

State Highs State Lows

Community

WunderPhotos

Upload Photos

1,927,225 photos uploaded!

WunderBlog® & News

Nearby

Air Quality

  Air Quality AQ Index Pollutant
Not available.

Snow Depth

Station Depth Elevation

Earthquake Activity

City Distance Mag. Time & Date
Minimum magnitude displayed is 2.5.

Coastal Water Temperatures

Place Temperature

Stations

Nearby Weather Stations

Station Location Temp. Windchill Dew Point Humidity Wind Precip. Elev Updated Type
                   

Watches & Warnings

There are currently no watches in effect.